LTAL Airport Information

Runway Information
Airport Frequencies
Airport Navaids
Airport Weather Information & NOTAM
ADDS - METARS form results

(2038 UTC 25 April 2019)
Data provider http://aviationweather.gov/metar/data/
 
Forecast for: LTAL (KASTAMONU , TR)
Text: TAF LTAL 251340Z 2515/2524 VRB02KT CAVOK
Forecast period: 1500 UTC 25 April 2019 to 0000 UTC 26 April 2019
Forecast type: FROM: standard forecast or significant change
Winds: variable direction winds at 2 MPH (2 knots; 1.0 m/s)
Visibility: 6 or more miles 10+ km)
Ceiling: unknown
Clouds: missing
Weather: NSW  (no significant weather)